Terminal Aerodrome Forecast
Issued by NWS

Home | Current Version | Previous Version | Text Only | Print | Product List | Glossary Off
Versions: 1 2 3 4 5 6 7 8 9 10 11 12 13 14 15 16 17 18 19 20 21 22 23 24 25 26 27 28

683
FTUS43 KBIS 172335
TAFDIK
TAF
KDIK 172335Z 1800/1824 16006KT P6SM VCSH OVC050
     FM180200 13007KT 6SM -RASN OVC015
     FM180500 26006KT 3SM BR VCSH OVC010
     FM180900 VRB04KT 2SM BR OVC008
     FM181600 31007KT P6SM OVC008
     FM181800 32008KT P6SM OVC015
     FM182000 34010KT P6SM OVC025=

USA.gov is the U.S. government's official web portal to all federal, state and local government web resources and services.